sensor_id;sensor_type;location;lat;lon;timestamp;P1;durP1;ratioP1;P2;durP2;ratioP2
38935;SDS011;66589;47.458;9.644;2023-06-14T03:16:58;3.60;;;1.38;;
38935;SDS011;66589;47.458;9.644;2023-06-14T03:19:25;5.05;;;1.02;;
38935;SDS011;66589;47.458;9.644;2023-06-14T03:21:51;2.85;;;1.10;;
38935;SDS011;66589;47.458;9.644;2023-06-14T03:24:18;8.15;;;1.50;;
38935;SDS011;66589;47.458;9.644;2023-06-14T03:26:44;3.13;;;1.10;;
38935;SDS011;66589;47.458;9.644;2023-06-14T03:29:10;3.30;;;1.20;;
38935;SDS011;66589;47.458;9.644;2023-06-14T03:31:36;5.05;;;1.80;;
38935;SDS011;66589;47.458;9.644;2023-06-14T03:34:20;3.22;;;1.35;;
38935;SDS011;66589;47.458;9.644;2023-06-14T03:36:46;4.60;;;0.82;;
38935;SDS011;66589;47.458;9.644;2023-06-14T03:39:11;4.20;;;1.27;;
38935;SDS011;66589;47.458;9.644;2023-06-14T03:41:37;3.92;;;1.40;;
38935;SDS011;66589;47.458;9.644;2023-06-14T03:44:03;6.05;;;1.13;;
38935;SDS011;66589;47.458;9.644;2023-06-14T03:46:29;5.07;;;1.63;;
38935;SDS011;66589;47.458;9.644;2023-06-14T03:48:54;7.90;;;1.20;;
38935;SDS011;66589;47.458;9.644;2023-06-14T03:51:20;3.03;;;1.33;;
38935;SDS011;66589;47.458;9.644;2023-06-14T03:53:47;3.30;;;1.13;;
38935;SDS011;66589;47.458;9.644;2023-06-14T03:56:13;3.67;;;1.23;;
38935;SDS011;66589;47.458;9.644;2023-06-14T03:58:38;4.97;;;1.65;;
38935;SDS011;66589;47.458;9.644;2023-06-14T04:01:04;3.63;;;1.65;;
38935;SDS011;66589;47.458;9.644;2023-06-14T04:03:32;4.32;;;1.50;;
38935;SDS011;66589;47.458;9.644;2023-06-14T04:05:58;3.33;;;1.40;;
38935;SDS011;66589;47.458;9.644;2023-06-14T04:08:25;5.85;;;1.70;;
38935;SDS011;66589;47.458;9.644;2023-06-14T04:10:50;6.32;;;2.35;;
38935;SDS011;66589;47.458;9.644;2023-06-14T04:13:16;4.70;;;1.52;;
38935;SDS011;66589;47.458;9.644;2023-06-14T04:15:42;7.78;;;1.77;;
38935;SDS011;66589;47.458;9.644;2023-06-14T04:18:10;5.13;;;1.45;;
38935;SDS011;66589;47.458;9.644;2023-06-14T04:20:36;5.97;;;2.10;;
38935;SDS011;66589;47.458;9.644;2023-06-14T04:23:16;7.25;;;2.20;;
38935;SDS011;66589;47.458;9.644;2023-06-14T04:25:46;10.85;;;2.15;;
38935;SDS011;66589;47.458;9.644;2023-06-14T04:28:12;4.13;;;2.30;;
38935;SDS011;66589;47.458;9.644;2023-06-14T04:30:40;4.63;;;1.88;;
38935;SDS011;66589;47.458;9.644;2023-06-14T04:33:06;8.70;;;2.25;;
38935;SDS011;66589;47.458;9.644;2023-06-14T04:35:32;4.28;;;2.20;;
38935;SDS011;66589;47.458;9.644;2023-06-14T04:37:58;4.13;;;2.25;;
38935;SDS011;66589;47.458;9.644;2023-06-14T04:40:24;13.93;;;2.75;;
38935;SDS011;66589;47.458;9.644;2023-06-14T04:42:50;5.15;;;2.40;;
38935;SDS011;66589;47.458;9.644;2023-06-14T04:45:16;5.82;;;2.40;;
38935;SDS011;66589;47.458;9.644;2023-06-14T04:47:42;5.80;;;2.40;;
38935;SDS011;66589;47.458;9.644;2023-06-14T04:50:09;7.95;;;2.40;;
38935;SDS011;66589;47.458;9.644;2023-06-14T04:52:36;9.25;;;2.58;;
38935;SDS011;66589;47.458;9.644;2023-06-14T04:55:02;10.77;;;3.15;;
38935;SDS011;66589;47.458;9.644;2023-06-14T04:57:28;6.50;;;3.00;;
38935;SDS011;66589;47.458;9.644;2023-06-14T04:59:54;11.77;;;2.90;;
38935;SDS011;66589;47.458;9.644;2023-06-14T05:02:23;7.20;;;3.10;;
38935;SDS011;66589;47.458;9.644;2023-06-14T05:04:50;7.80;;;2.97;;
38935;SDS011;66589;47.458;9.644;2023-06-14T05:07:16;9.57;;;2.63;;
38935;SDS011;66589;47.458;9.644;2023-06-14T05:09:42;9.85;;;2.15;;
38935;SDS011;66589;47.458;9.644;2023-06-14T05:12:08;8.35;;;2.85;;
38935;SDS011;66589;47.458;9.644;2023-06-14T05:14:34;5.20;;;3.22;;
38935;SDS011;66589;47.458;9.644;2023-06-14T05:17:00;3.88;;;2.25;;
38935;SDS011;66589;47.458;9.644;2023-06-14T05:19:27;6.07;;;3.33;;
38935;SDS011;66589;47.458;9.644;2023-06-14T05:21:53;9.60;;;3.10;;
38935;SDS011;66589;47.458;9.644;2023-06-14T05:24:19;4.85;;;3.22;;
38935;SDS011;66589;47.458;9.644;2023-06-14T05:26:45;8.88;;;3.78;;
38935;SDS011;66589;47.458;9.644;2023-06-14T05:29:11;5.82;;;3.65;;
38935;SDS011;66589;47.458;9.644;2023-06-14T05:31:37;7.03;;;4.03;;
38935;SDS011;66589;47.458;9.644;2023-06-14T05:34:03;7.18;;;4.03;;
38935;SDS011;66589;47.458;9.644;2023-06-14T05:36:29;6.88;;;3.45;;
38935;SDS011;66589;47.458;9.644;2023-06-14T05:38:55;7.90;;;3.67;;
38935;SDS011;66589;47.458;9.644;2023-06-14T05:41:28;8.43;;;4.30;;
38935;SDS011;66589;47.458;9.644;2023-06-14T05:43:54;5.00;;;3.95;;
38935;SDS011;66589;47.458;9.644;2023-06-14T05:46:21;5.95;;;3.70;;
38935;SDS011;66589;47.458;9.644;2023-06-14T05:48:49;7.65;;;3.25;;
38935;SDS011;66589;47.458;9.644;2023-06-14T05:51:16;5.38;;;3.35;;
38935;SDS011;66589;47.458;9.644;2023-06-14T05:53:47;4.57;;;2.70;;
38935;SDS011;66589;47.458;9.644;2023-06-14T05:56:13;5.75;;;2.63;;
38935;SDS011;66589;47.458;9.644;2023-06-14T05:58:40;7.97;;;4.00;;
38935;SDS011;66589;47.458;9.644;2023-06-14T06:01:06;5.82;;;4.15;;
38935;SDS011;66589;47.458;9.644;2023-06-14T06:03:32;8.48;;;3.92;;
38935;SDS011;66589;47.458;9.644;2023-06-14T06:05:58;6.25;;;4.15;;
38935;SDS011;66589;47.458;9.644;2023-06-14T06:08:24;7.05;;;3.83;;
38935;SDS011;66589;47.458;9.644;2023-06-14T06:10:49;8.13;;;4.05;;
38935;SDS011;66589;47.458;9.644;2023-06-14T06:13:15;5.40;;;3.67;;
38935;SDS011;66589;47.458;9.644;2023-06-14T06:15:41;8.90;;;5.50;;
38935;SDS011;66589;47.458;9.644;2023-06-14T06:18:07;7.43;;;4.90;;
38935;SDS011;66589;47.458;9.644;2023-06-14T06:20:32;8.40;;;5.07;;
38935;SDS011;66589;47.458;9.644;2023-06-14T06:22:58;6.63;;;4.50;;
38935;SDS011;66589;47.458;9.644;2023-06-14T06:25:27;5.72;;;4.53;;
38935;SDS011;66589;47.458;9.644;2023-06-14T06:27:53;6.03;;;4.97;;
38935;SDS011;66589;47.458;9.644;2023-06-14T06:30:19;6.43;;;5.32;;
38935;SDS011;66589;47.458;9.644;2023-06-14T06:32:45;8.43;;;4.75;;
38935;SDS011;66589;47.458;9.644;2023-06-14T06:35:12;8.48;;;5.15;;
38935;SDS011;66589;47.458;9.644;2023-06-14T06:37:38;8.73;;;4.63;;
38935;SDS011;66589;47.458;9.644;2023-06-14T06:40:05;7.95;;;5.00;;
38935;SDS011;66589;47.458;9.644;2023-06-14T06:42:31;5.75;;;4.43;;
38935;SDS011;66589;47.458;9.644;2023-06-14T06:44:57;8.13;;;4.93;;
38935;SDS011;66589;47.458;9.644;2023-06-14T06:47:23;6.28;;;4.90;;
38935;SDS011;66589;47.458;9.644;2023-06-14T06:49:50;12.32;;;4.68;;
38935;SDS011;66589;47.458;9.644;2023-06-14T06:52:15;7.97;;;5.15;;
38935;SDS011;66589;47.458;9.644;2023-06-14T06:54:41;7.63;;;4.78;;
38935;SDS011;66589;47.458;9.644;2023-06-14T06:57:07;7.57;;;5.32;;
38935;SDS011;66589;47.458;9.644;2023-06-14T06:59:33;6.10;;;5.50;;
38935;SDS011;66589;47.458;9.644;2023-06-14T07:01:59;5.60;;;5.10;;
38935;SDS011;66589;47.458;9.644;2023-06-14T07:04:25;6.20;;;5.35;;
38935;SDS011;66589;47.458;9.644;2023-06-14T07:06:51;8.45;;;5.85;;
38935;SDS011;66589;47.458;9.644;2023-06-14T07:09:16;11.55;;;5.20;;
38935;SDS011;66589;47.458;9.644;2023-06-14T07:11:44;8.27;;;5.00;;
38935;SDS011;66589;47.458;9.644;2023-06-14T07:14:11;6.10;;;5.50;;
38935;SDS011;66589;47.458;9.644;2023-06-14T07:16:37;6.40;;;5.75;;
38935;SDS011;66589;47.458;9.644;2023-06-14T07:19:03;6.97;;;6.32;;
38935;SDS011;66589;47.458;9.644;2023-06-14T07:21:30;6.35;;;5.35;;
38935;SDS011;66589;47.458;9.644;2023-06-14T07:23:56;6.55;;;5.32;;
38935;SDS011;66589;47.458;9.644;2023-06-14T07:26:22;5.85;;;5.25;;
38935;SDS011;66589;47.458;9.644;2023-06-14T07:28:48;6.72;;;6.03;;
38935;SDS011;66589;47.458;9.644;2023-06-14T07:31:14;9.73;;;6.35;;
38935;SDS011;66589;47.458;9.644;2023-06-14T07:33:41;9.00;;;5.63;;
38935;SDS011;66589;47.458;9.644;2023-06-14T07:36:08;8.93;;;6.18;;
38935;SDS011;66589;47.458;9.644;2023-06-14T07:38:33;8.70;;;6.25;;
38935;SDS011;66589;47.458;9.644;2023-06-14T07:40:59;8.75;;;6.95;;
38935;SDS011;66589;47.458;9.644;2023-06-14T07:43:25;10.57;;;6.43;;
38935;SDS011;66589;47.458;9.644;2023-06-14T07:45:51;8.93;;;6.60;;
38935;SDS011;66589;47.458;9.644;2023-06-14T07:48:17;11.02;;;5.97;;
38935;SDS011;66589;47.458;9.644;2023-06-14T07:50:43;7.53;;;6.90;;
38935;SDS011;66589;47.458;9.644;2023-06-14T07:53:09;9.73;;;6.72;;
38935;SDS011;66589;47.458;9.644;2023-06-14T07:55:34;7.40;;;6.63;;
38935;SDS011;66589;47.458;9.644;2023-06-14T07:58:02;6.68;;;6.00;;
38935;SDS011;66589;47.458;9.644;2023-06-14T08:00:28;9.32;;;6.63;;
38935;SDS011;66589;47.458;9.644;2023-06-14T08:02:54;10.60;;;6.45;;
38935;SDS011;66589;47.458;9.644;2023-06-14T08:05:27;7.90;;;5.82;;
38935;SDS011;66589;47.458;9.644;2023-06-14T08:07:53;8.43;;;6.25;;
38935;SDS011;66589;47.458;9.644;2023-06-14T08:10:18;11.60;;;4.97;;
38935;SDS011;66589;47.458;9.644;2023-06-14T08:12:45;6.05;;;5.20;;
38935;SDS011;66589;47.458;9.644;2023-06-14T08:15:10;9.40;;;6.72;;
38935;SDS011;66589;47.458;9.644;2023-06-14T08:17:36;9.32;;;8.27;;
38935;SDS011;66589;47.458;9.644;2023-06-14T08:20:02;8.10;;;6.82;;
38935;SDS011;66589;47.458;9.644;2023-06-14T08:22:31;8.55;;;7.65;;
38935;SDS011;66589;47.458;9.644;2023-06-14T08:25:01;11.38;;;6.85;;
38935;SDS011;66589;47.458;9.644;2023-06-14T08:27:27;7.60;;;6.90;;
38935;SDS011;66589;47.458;9.644;2023-06-14T08:29:53;9.35;;;8.55;;
38935;SDS011;66589;47.458;9.644;2023-06-14T08:32:18;7.97;;;7.18;;
38935;SDS011;66589;47.458;9.644;2023-06-14T08:34:44;6.32;;;4.35;;
38935;SDS011;66589;47.458;9.644;2023-06-14T08:37:10;7.22;;;5.00;;
38935;SDS011;66589;47.458;9.644;2023-06-14T08:39:36;10.30;;;7.10;;
38935;SDS011;66589;47.458;9.644;2023-06-14T08:42:02;9.68;;;6.95;;
38935;SDS011;66589;47.458;9.644;2023-06-14T08:44:31;7.97;;;6.97;;
38935;SDS011;66589;47.458;9.644;2023-06-14T08:47:01;8.98;;;8.07;;
38935;SDS011;66589;47.458;9.644;2023-06-14T08:49:28;11.45;;;8.10;;
38935;SDS011;66589;47.458;9.644;2023-06-14T08:51:59;8.80;;;7.03;;
38935;SDS011;66589;47.458;9.644;2023-06-14T08:54:28;9.27;;;8.30;;
38935;SDS011;66589;47.458;9.644;2023-06-14T08:56:58;8.25;;;7.40;;
38935;SDS011;66589;47.458;9.644;2023-06-14T08:59:25;8.63;;;7.80;;
38935;SDS011;66589;47.458;9.644;2023-06-14T09:01:52;9.32;;;8.52;;
38935;SDS011;66589;47.458;9.644;2023-06-14T09:04:19;9.70;;;8.07;;
38935;SDS011;66589;47.458;9.644;2023-06-14T09:06:49;6.18;;;5.22;;
38935;SDS011;66589;47.458;9.644;2023-06-14T09:09:21;4.72;;;4.15;;
38935;SDS011;66589;47.458;9.644;2023-06-14T09:11:51;8.68;;;7.88;;
38935;SDS011;66589;47.458;9.644;2023-06-14T09:14:19;9.13;;;8.27;;
38935;SDS011;66589;47.458;9.644;2023-06-14T09:16:53;10.68;;;8.90;;
38935;SDS011;66589;47.458;9.644;2023-06-14T09:19:25;8.65;;;7.30;;
38935;SDS011;66589;47.458;9.644;2023-06-14T09:21:52;9.05;;;8.15;;
38935;SDS011;66589;47.458;9.644;2023-06-14T09:24:18;9.35;;;8.48;;
38935;SDS011;66589;47.458;9.644;2023-06-14T09:26:46;9.85;;;8.85;;
38935;SDS011;66589;47.458;9.644;2023-06-14T09:29:12;8.82;;;8.02;;
38935;SDS011;66589;47.458;9.644;2023-06-14T09:31:38;6.93;;;6.20;;
38935;SDS011;66589;47.458;9.644;2023-06-14T09:34:04;6.60;;;5.22;;
38935;SDS011;66589;47.458;9.644;2023-06-14T09:36:31;8.07;;;7.38;;
38935;SDS011;66589;47.458;9.644;2023-06-14T09:38:58;12.38;;;8.23;;
38935;SDS011;66589;47.458;9.644;2023-06-14T09:43:58;8.95;;;8.23;;
38935;SDS011;66589;47.458;9.644;2023-06-14T09:46:26;10.43;;;8.05;;
38935;SDS011;66589;47.458;9.644;2023-06-14T09:48:52;5.80;;;5.13;;
38935;SDS011;66589;47.458;9.644;2023-06-14T09:51:18;9.18;;;7.80;;
38935;SDS011;66589;47.458;9.644;2023-06-14T09:53:47;10.13;;;9.07;;
38935;SDS011;66589;47.458;9.644;2023-06-14T09:56:16;8.07;;;7.28;;
38935;SDS011;66589;47.458;9.644;2023-06-14T09:58:57;10.65;;;5.78;;
38935;SDS011;66589;47.458;9.644;2023-06-14T10:01:24;5.90;;;5.30;;
38935;SDS011;66589;47.458;9.644;2023-06-14T10:03:53;6.78;;;3.65;;
38935;SDS011;66589;47.458;9.644;2023-06-14T10:06:24;9.30;;;5.22;;
38935;SDS011;66589;47.458;9.644;2023-06-14T10:08:56;11.18;;;4.40;;
38935;SDS011;66589;47.458;9.644;2023-06-14T10:11:24;6.25;;;4.57;;
38935;SDS011;66589;47.458;9.644;2023-06-14T10:13:57;9.48;;;4.18;;
38935;SDS011;66589;47.458;9.644;2023-06-14T10:16:28;5.18;;;3.80;;
38935;SDS011;66589;47.458;9.644;2023-06-14T10:22:01;4.40;;;3.22;;
38935;SDS011;66589;47.458;9.644;2023-06-14T10:24:35;6.88;;;3.13;;
38935;SDS011;66589;47.458;9.644;2023-06-14T10:27:06;7.50;;;3.10;;
38935;SDS011;66589;47.458;9.644;2023-06-14T10:32:20;6.43;;;3.42;;
38935;SDS011;66589;47.458;9.644;2023-06-14T10:34:53;9.57;;;2.58;;
38935;SDS011;66589;47.458;9.644;2023-06-14T10:37:39;4.43;;;2.72;;
38935;SDS011;66589;47.458;9.644;2023-06-14T10:40:05;6.20;;;2.63;;
38935;SDS011;66589;47.458;9.644;2023-06-14T10:45:00;4.25;;;2.67;;
38935;SDS011;66589;47.458;9.644;2023-06-14T10:47:27;9.85;;;2.70;;
38935;SDS011;66589;47.458;9.644;2023-06-14T10:49:58;12.70;;;2.20;;
38935;SDS011;66589;47.458;9.644;2023-06-14T10:52:32;3.47;;;2.53;;
38935;SDS011;66589;47.458;9.644;2023-06-14T10:55:12;6.55;;;2.50;;
38935;SDS011;66589;47.458;9.644;2023-06-14T10:57:46;4.03;;;2.60;;
38935;SDS011;66589;47.458;9.644;2023-06-14T11:00:17;3.55;;;2.33;;
38935;SDS011;66589;47.458;9.644;2023-06-14T11:05:51;5.60;;;1.70;;
38935;SDS011;66589;47.458;9.644;2023-06-14T11:10:54;6.90;;;2.25;;
38935;SDS011;66589;47.458;9.644;2023-06-14T11:13:25;5.90;;;2.47;;
38935;SDS011;66589;47.458;9.644;2023-06-14T11:15:51;4.55;;;2.40;;
38935;SDS011;66589;47.458;9.644;2023-06-14T11:18:22;6.55;;;2.35;;
38935;SDS011;66589;47.458;9.644;2023-06-14T11:20:52;7.03;;;2.05;;
38935;SDS011;66589;47.458;9.644;2023-06-14T11:23:19;10.88;;;2.72;;
38935;SDS011;66589;47.458;9.644;2023-06-14T11:25:49;5.95;;;2.63;;
38935;SDS011;66589;47.458;9.644;2023-06-14T11:28:16;4.38;;;2.40;;
38935;SDS011;66589;47.458;9.644;2023-06-14T11:30:44;4.47;;;3.03;;
38935;SDS011;66589;47.458;9.644;2023-06-14T11:33:10;6.60;;;2.42;;
38935;SDS011;66589;47.458;9.644;2023-06-14T11:35:42;6.25;;;2.90;;
38935;SDS011;66589;47.458;9.644;2023-06-14T11:38:09;5.13;;;2.50;;
38935;SDS011;66589;47.458;9.644;2023-06-14T11:40:37;6.22;;;1.83;;
38935;SDS011;66589;47.458;9.644;2023-06-14T11:43:03;6.05;;;2.50;;
38935;SDS011;66589;47.458;9.644;2023-06-14T11:45:29;7.95;;;2.33;;
38935;SDS011;66589;47.458;9.644;2023-06-14T11:47:56;4.65;;;2.83;;
38935;SDS011;66589;47.458;9.644;2023-06-14T11:50:23;5.60;;;1.42;;
38935;SDS011;66589;47.458;9.644;2023-06-14T11:52:56;3.65;;;2.38;;
38935;SDS011;66589;47.458;9.644;2023-06-14T11:55:22;7.53;;;2.95;;
38935;SDS011;66589;47.458;9.644;2023-06-14T11:57:49;4.85;;;2.92;;
38935;SDS011;66589;47.458;9.644;2023-06-14T12:00:15;5.63;;;2.55;;
38935;SDS011;66589;47.458;9.644;2023-06-14T12:02:42;5.88;;;2.38;;
38935;SDS011;66589;47.458;9.644;2023-06-14T12:05:19;5.28;;;1.27;;
38935;SDS011;66589;47.458;9.644;2023-06-14T12:07:46;4.35;;;2.33;;
38935;SDS011;66589;47.458;9.644;2023-06-14T12:10:12;6.25;;;2.40;;
38935;SDS011;66589;47.458;9.644;2023-06-14T12:12:39;6.13;;;2.63;;
38935;SDS011;66589;47.458;9.644;2023-06-14T12:15:07;4.47;;;1.92;;
38935;SDS011;66589;47.458;9.644;2023-06-14T12:17:34;7.25;;;2.60;;
38935;SDS011;66589;47.458;9.644;2023-06-14T12:20:07;10.88;;;2.50;;
38935;SDS011;66589;47.458;9.644;2023-06-14T12:22:36;6.68;;;2.10;;
38935;SDS011;66589;47.458;9.644;2023-06-14T12:25:02;4.90;;;2.40;;
38935;SDS011;66589;47.458;9.644;2023-06-14T12:27:28;4.90;;;2.47;;
38935;SDS011;66589;47.458;9.644;2023-06-14T12:30:03;5.53;;;1.95;;
38935;SDS011;66589;47.458;9.644;2023-06-14T12:32:30;4.38;;;2.55;;
38935;SDS011;66589;47.458;9.644;2023-06-14T12:34:56;5.22;;;2.28;;
38935;SDS011;66589;47.458;9.644;2023-06-14T12:37:21;6.88;;;2.25;;
38935;SDS011;66589;47.458;9.644;2023-06-14T12:39:47;3.80;;;2.05;;
38935;SDS011;66589;47.458;9.644;2023-06-14T12:42:13;8.52;;;2.97;;
38935;SDS011;66589;47.458;9.644;2023-06-14T12:44:40;7.10;;;2.28;;
38935;SDS011;66589;47.458;9.644;2023-06-14T12:47:06;4.10;;;2.25;;
38935;SDS011;66589;47.458;9.644;2023-06-14T12:49:32;5.85;;;2.38;;
38935;SDS011;66589;47.458;9.644;2023-06-14T12:51:58;4.22;;;2.17;;
38935;SDS011;66589;47.458;9.644;2023-06-14T12:54:24;3.47;;;2.40;;
38935;SDS011;66589;47.458;9.644;2023-06-14T12:56:52;3.88;;;1.98;;
38935;SDS011;66589;47.458;9.644;2023-06-14T12:59:20;8.75;;;2.17;;
38935;SDS011;66589;47.458;9.644;2023-06-14T13:01:45;3.08;;;1.35;;
38935;SDS011;66589;47.458;9.644;2023-06-14T13:04:14;5.50;;;2.80;;
38935;SDS011;66589;47.458;9.644;2023-06-14T13:06:40;3.75;;;2.10;;
38935;SDS011;66589;47.458;9.644;2023-06-14T13:09:06;8.32;;;2.40;;
38935;SDS011;66589;47.458;9.644;2023-06-14T13:11:33;6.03;;;2.20;;
38935;SDS011;66589;47.458;9.644;2023-06-14T13:13:58;6.00;;;2.72;;
38935;SDS011;66589;47.458;9.644;2023-06-14T13:16:24;8.15;;;2.53;;
38935;SDS011;66589;47.458;9.644;2023-06-14T13:18:50;5.15;;;2.20;;
38935;SDS011;66589;47.458;9.644;2023-06-14T13:21:16;6.47;;;2.38;;
38935;SDS011;66589;47.458;9.644;2023-06-14T13:23:41;5.05;;;1.80;;
38935;SDS011;66589;47.458;9.644;2023-06-14T13:26:07;4.13;;;2.20;;
38935;SDS011;66589;47.458;9.644;2023-06-14T13:28:33;6.20;;;2.33;;
38935;SDS011;66589;47.458;9.644;2023-06-14T13:31:00;6.15;;;2.13;;
38935;SDS011;66589;47.458;9.644;2023-06-14T13:33:26;5.85;;;1.92;;
38935;SDS011;66589;47.458;9.644;2023-06-14T13:35:52;3.58;;;1.95;;
38935;SDS011;66589;47.458;9.644;2023-06-14T13:38:22;4.28;;;2.28;;
38935;SDS011;66589;47.458;9.644;2023-06-14T13:40:48;10.60;;;2.33;;
38935;SDS011;66589;47.458;9.644;2023-06-14T13:43:14;3.88;;;1.50;;
38935;SDS011;66589;47.458;9.644;2023-06-14T13:45:39;8.10;;;1.83;;
38935;SDS011;66589;47.458;9.644;2023-06-14T13:48:05;4.45;;;2.13;;
38935;SDS011;66589;47.458;9.644;2023-06-14T13:50:31;4.05;;;2.00;;
38935;SDS011;66589;47.458;9.644;2023-06-14T13:52:56;4.25;;;1.92;;
38935;SDS011;66589;47.458;9.644;2023-06-14T13:55:22;7.30;;;2.67;;
38935;SDS011;66589;47.458;9.644;2023-06-14T13:57:48;4.53;;;1.92;;
38935;SDS011;66589;47.458;9.644;2023-06-14T14:00:13;5.30;;;1.95;;
38935;SDS011;66589;47.458;9.644;2023-06-14T14:02:39;4.65;;;2.35;;
38935;SDS011;66589;47.458;9.644;2023-06-14T14:05:05;4.80;;;1.67;;
38935;SDS011;66589;47.458;9.644;2023-06-14T14:07:31;5.82;;;1.85;;
38935;SDS011;66589;47.458;9.644;2023-06-14T14:09:57;5.68;;;2.38;;
38935;SDS011;66589;47.458;9.644;2023-06-14T14:12:23;4.60;;;1.35;;
38935;SDS011;66589;47.458;9.644;2023-06-14T14:14:50;3.88;;;2.30;;
38935;SDS011;66589;47.458;9.644;2023-06-14T14:17:16;4.25;;;1.80;;
38935;SDS011;66589;47.458;9.644;2023-06-14T14:19:42;5.22;;;2.40;;
38935;SDS011;66589;47.458;9.644;2023-06-14T14:22:08;4.63;;;2.47;;
38935;SDS011;66589;47.458;9.644;2023-06-14T14:24:34;5.22;;;1.75;;
38935;SDS011;66589;47.458;9.644;2023-06-14T14:26:59;8.38;;;2.45;;
38935;SDS011;66589;47.458;9.644;2023-06-14T14:29:25;7.22;;;2.50;;
38935;SDS011;66589;47.458;9.644;2023-06-14T14:31:54;3.35;;;2.40;;
38935;SDS011;66589;47.458;9.644;2023-06-14T14:34:20;5.03;;;1.85;;
38935;SDS011;66589;47.458;9.644;2023-06-14T14:36:46;4.57;;;2.20;;
38935;SDS011;66589;47.458;9.644;2023-06-14T14:39:12;5.20;;;2.15;;
38935;SDS011;66589;47.458;9.644;2023-06-14T14:41:37;6.65;;;2.00;;
38935;SDS011;66589;47.458;9.644;2023-06-14T14:44:05;4.80;;;1.77;;
38935;SDS011;66589;47.458;9.644;2023-06-14T14:46:31;5.45;;;1.90;;
38935;SDS011;66589;47.458;9.644;2023-06-14T14:48:56;6.03;;;2.50;;
38935;SDS011;66589;47.458;9.644;2023-06-14T14:51:24;5.53;;;2.42;;
38935;SDS011;66589;47.458;9.644;2023-06-14T14:53:49;7.43;;;1.88;;
38935;SDS011;66589;47.458;9.644;2023-06-14T14:56:16;3.13;;;1.67;;
38935;SDS011;66589;47.458;9.644;2023-06-14T14:58:42;3.90;;;1.98;;
38935;SDS011;66589;47.458;9.644;2023-06-14T15:01:07;7.93;;;2.90;;
38935;SDS011;66589;47.458;9.644;2023-06-14T15:03:33;4.43;;;1.83;;
38935;SDS011;66589;47.458;9.644;2023-06-14T15:05:59;5.18;;;2.05;;
38935;SDS011;66589;47.458;9.644;2023-06-14T15:08:24;5.43;;;1.75;;
38935;SDS011;66589;47.458;9.644;2023-06-14T15:10:50;4.35;;;2.00;;
38935;SDS011;66589;47.458;9.644;2023-06-14T15:13:16;7.70;;;1.60;;
38935;SDS011;66589;47.458;9.644;2023-06-14T15:15:41;6.53;;;2.03;;
38935;SDS011;66589;47.458;9.644;2023-06-14T15:18:07;6.05;;;2.05;;
38935;SDS011;66589;47.458;9.644;2023-06-14T15:20:35;7.00;;;1.88;;
38935;SDS011;66589;47.458;9.644;2023-06-14T15:23:01;7.03;;;1.85;;
38935;SDS011;66589;47.458;9.644;2023-06-14T15:25:27;6.32;;;1.75;;
38935;SDS011;66589;47.458;9.644;2023-06-14T15:27:54;4.57;;;1.88;;
38935;SDS011;66589;47.458;9.644;2023-06-14T15:30:20;3.50;;;2.00;;
38935;SDS011;66589;47.458;9.644;2023-06-14T15:32:46;5.47;;;2.05;;
38935;SDS011;66589;47.458;9.644;2023-06-14T15:35:12;3.83;;;1.88;;
38935;SDS011;66589;47.458;9.644;2023-06-14T15:37:38;6.63;;;1.60;;
38935;SDS011;66589;47.458;9.644;2023-06-14T15:40:04;5.20;;;1.38;;
38935;SDS011;66589;47.458;9.644;2023-06-14T15:42:31;6.15;;;1.92;;
38935;SDS011;66589;47.458;9.644;2023-06-14T15:44:56;4.30;;;2.17;;
38935;SDS011;66589;47.458;9.644;2023-06-14T15:47:22;3.22;;;1.08;;
38935;SDS011;66589;47.458;9.644;2023-06-14T15:49:48;4.55;;;1.25;;
38935;SDS011;66589;47.458;9.644;2023-06-14T15:52:14;3.78;;;2.10;;
38935;SDS011;66589;47.458;9.644;2023-06-14T15:54:40;3.35;;;1.63;;
38935;SDS011;66589;47.458;9.644;2023-06-14T15:57:05;3.90;;;2.10;;
38935;SDS011;66589;47.458;9.644;2023-06-14T15:59:32;5.38;;;1.10;;
38935;SDS011;66589;47.458;9.644;2023-06-14T16:01:58;3.83;;;1.50;;
38935;SDS011;66589;47.458;9.644;2023-06-14T16:04:24;2.40;;;0.95;;
38935;SDS011;66589;47.458;9.644;2023-06-14T16:06:50;4.25;;;1.92;;
38935;SDS011;66589;47.458;9.644;2023-06-14T16:09:15;9.35;;;1.90;;
38935;SDS011;66589;47.458;9.644;2023-06-14T16:11:41;2.85;;;1.25;;
38935;SDS011;66589;47.458;9.644;2023-06-14T16:14:07;3.90;;;1.60;;
38935;SDS011;66589;47.458;9.644;2023-06-14T16:16:32;4.45;;;1.73;;
38935;SDS011;66589;47.458;9.644;2023-06-14T16:18:58;3.67;;;1.80;;
38935;SDS011;66589;47.458;9.644;2023-06-14T16:21:24;3.22;;;1.70;;
38935;SDS011;66589;47.458;9.644;2023-06-14T16:23:51;4.43;;;1.83;;
38935;SDS011;66589;47.458;9.644;2023-06-14T16:26:17;5.25;;;1.75;;
38935;SDS011;66589;47.458;9.644;2023-06-14T16:28:42;2.65;;;1.70;;
38935;SDS011;66589;47.458;9.644;2023-06-14T16:31:09;3.45;;;1.77;;
38935;SDS011;66589;47.458;9.644;2023-06-14T16:33:36;3.20;;;1.90;;
38935;SDS011;66589;47.458;9.644;2023-06-14T16:36:02;3.40;;;1.83;;
38935;SDS011;66589;47.458;9.644;2023-06-14T16:38:28;5.72;;;1.67;;
38935;SDS011;66589;47.458;9.644;2023-06-14T16:40:53;5.28;;;1.80;;
38935;SDS011;66589;47.458;9.644;2023-06-14T16:43:19;4.20;;;1.30;;
38935;SDS011;66589;47.458;9.644;2023-06-14T16:45:45;4.97;;;2.30;;
38935;SDS011;66589;47.458;9.644;2023-06-14T16:48:10;6.88;;;2.53;;
38935;SDS011;66589;47.458;9.644;2023-06-14T16:50:36;14.60;;;9.02;;
38935;SDS011;66589;47.458;9.644;2023-06-14T16:53:02;16.00;;;7.95;;
38935;SDS011;66589;47.458;9.644;2023-06-14T16:55:27;18.08;;;9.07;;
38935;SDS011;66589;47.458;9.644;2023-06-14T16:57:53;14.43;;;7.65;;
38935;SDS011;66589;47.458;9.644;2023-06-14T17:00:19;13.52;;;7.68;;
38935;SDS011;66589;47.458;9.644;2023-06-14T17:02:44;8.23;;;3.58;;
38935;SDS011;66589;47.458;9.644;2023-06-14T17:05:11;7.13;;;3.00;;
38935;SDS011;66589;47.458;9.644;2023-06-14T17:07:37;5.78;;;2.13;;
38935;SDS011;66589;47.458;9.644;2023-06-14T17:10:03;4.75;;;2.60;;
38935;SDS011;66589;47.458;9.644;2023-06-14T17:12:29;5.10;;;3.35;;
38935;SDS011;66589;47.458;9.644;2023-06-14T17:14:55;6.97;;;2.40;;
38935;SDS011;66589;47.458;9.644;2023-06-14T17:17:21;5.35;;;2.30;;
38935;SDS011;66589;47.458;9.644;2023-06-14T17:19:47;6.57;;;2.25;;
38935;SDS011;66589;47.458;9.644;2023-06-14T17:22:13;8.38;;;2.15;;
38935;SDS011;66589;47.458;9.644;2023-06-14T17:24:38;4.50;;;1.30;;
38935;SDS011;66589;47.458;9.644;2023-06-14T17:27:04;3.72;;;2.10;;
38935;SDS011;66589;47.458;9.644;2023-06-14T17:29:30;6.85;;;2.00;;
38935;SDS011;66589;47.458;9.644;2023-06-14T17:31:56;3.63;;;1.67;;
38935;SDS011;66589;47.458;9.644;2023-06-14T17:34:22;8.45;;;2.10;;
38935;SDS011;66589;47.458;9.644;2023-06-14T17:36:47;5.32;;;1.73;;
38935;SDS011;66589;47.458;9.644;2023-06-14T17:39:15;3.45;;;1.80;;
38935;SDS011;66589;47.458;9.644;2023-06-14T17:41:44;7.60;;;2.22;;
38935;SDS011;66589;47.458;9.644;2023-06-14T17:44:10;3.95;;;1.70;;
38935;SDS011;66589;47.458;9.644;2023-06-14T17:46:36;3.22;;;1.85;;
38935;SDS011;66589;47.458;9.644;2023-06-14T17:49:02;5.50;;;1.70;;
38935;SDS011;66589;47.458;9.644;2023-06-14T17:51:28;3.60;;;1.90;;
38935;SDS011;66589;47.458;9.644;2023-06-14T17:53:54;8.23;;;1.77;;
38935;SDS011;66589;47.458;9.644;2023-06-14T17:56:19;7.03;;;1.92;;
38935;SDS011;66589;47.458;9.644;2023-06-14T17:58:45;3.83;;;1.95;;
38935;SDS011;66589;47.458;9.644;2023-06-14T18:01:11;4.78;;;1.80;;
38935;SDS011;66589;47.458;9.644;2023-06-14T18:03:39;3.00;;;1.55;;
38935;SDS011;66589;47.458;9.644;2023-06-14T18:06:05;3.67;;;1.55;;
38935;SDS011;66589;47.458;9.644;2023-06-14T18:08:31;5.13;;;2.05;;
38935;SDS011;66589;47.458;9.644;2023-06-14T18:10:56;5.57;;;1.83;;
38935;SDS011;66589;47.458;9.644;2023-06-14T18:13:22;8.02;;;1.40;;
38935;SDS011;66589;47.458;9.644;2023-06-14T18:15:48;2.83;;;1.75;;